Time;durP1;ratioP1;P1;durP2;ratioP2;P2;SDS_P1;SDS_P2;PMS_P1;PMS_P2;Temp;Humidity;BMP_temperature;BMP_pressure;BME280_temperature;BME280_humidity;BME280_pressure;Samples;Min_cycle;Max_cycle;Signal;HPM_P1;HPM_P2
2022/07/23 00:00:44;;;;;;;8.65;4.88;;;;;;;;;;5073420;28;20025;-39
2022/07/23 00:03:10;;;;;;;8.63;4.97;;;;;;;;;;5073804;28;20380;-39
2022/07/23 00:05:36;;;;;;;9.00;4.80;;;;;;;;;;5073210;28;20024;-39
2022/07/23 00:08:02;;;;;;;8.07;4.95;;;;;;;;;;5073451;28;20024;-40
2022/07/23 00:10:28;;;;;;;8.60;5.25;;;;;;;;;;5073848;28;20028;-39
2022/07/23 00:12:54;;;;;;;8.90;4.82;;;;;;;;;;5073726;28;20478;-39
2022/07/23 00:15:20;;;;;;;7.57;4.20;;;;;;;;;;5073966;28;20463;-39
2022/07/23 00:17:46;;;;;;;8.85;4.72;;;;;;;;;;5071531;28;20119;-38
2022/07/23 00:20:12;;;;;;;5.93;4.32;;;;;;;;;;5071530;28;20111;-38
2022/07/23 00:22:46;;;;;;;7.22;4.40;;;;;;;;;;5072894;28;20070;-38
2022/07/23 00:25:12;;;;;;;6.28;5.63;;;;;;;;;;5072268;28;20020;-39
2022/07/23 00:27:38;;;;;;;11.32;4.55;;;;;;;;;;5072872;28;20035;-39
2022/07/23 00:30:04;;;;;;;10.32;5.00;;;;;;;;;;5072933;28;20028;-37
2022/07/23 00:32:30;;;;;;;7.82;4.75;;;;;;;;;;5072933;28;20028;-38
2022/07/23 00:34:56;;;;;;;10.20;4.95;;;;;;;;;;5072683;28;20078;-39
2022/07/23 00:37:22;;;;;;;5.53;4.63;;;;;;;;;;5073107;28;20029;-39
2022/07/23 00:39:48;;;;;;;7.70;4.97;;;;;;;;;;5071815;28;20102;-39
2022/07/23 00:42:14;;;;;;;8.70;4.65;;;;;;;;;;5074436;28;20028;-39
2022/07/23 00:44:40;;;;;;;9.57;5.68;;;;;;;;;;5077520;28;20577;-38
2022/07/23 00:47:06;;;;;;;9.02;5.03;;;;;;;;;;5076567;28;20052;-38
2022/07/23 00:49:32;;;;;;;11.50;5.13;;;;;;;;;;5076428;28;20411;-39
2022/07/23 00:51:59;;;;;;;9.40;5.70;;;;;;;;;;5076204;28;20104;-39
2022/07/23 00:54:27;;;;;;;8.88;5.60;;;;;;;;;;5074754;28;20113;-38
2022/07/23 00:56:53;;;;;;;9.10;5.50;;;;;;;;;;5076525;28;20047;-38
2022/07/23 00:59:19;;;;;;;8.60;5.30;;;;;;;;;;5076877;28;20046;-39
2022/07/23 01:01:48;;;;;;;9.48;4.90;;;;;;;;;;5076124;28;20108;-38
2022/07/23 01:04:15;;;;;;;9.70;5.07;;;;;;;;;;5076066;28;20064;-40
2022/07/23 01:06:41;;;;;;;8.40;6.18;;;;;;;;;;5076134;28;20372;-38
2022/07/23 01:09:07;;;;;;;6.63;5.18;;;;;;;;;;5075540;28;20051;-38
2022/07/23 01:11:34;;;;;;;8.80;5.72;;;;;;;;;;5075786;28;20431;-38
2022/07/23 01:14:08;;;;;;;7.63;5.00;;;;;;;;;;5075883;28;20028;-38
2022/07/23 01:16:34;;;;;;;7.28;5.03;;;;;;;;;;5074127;28;20119;-38
2022/07/23 01:19:00;;;;;;;8.68;5.13;;;;;;;;;;5075493;28;20128;-38
2022/07/23 01:21:26;;;;;;;9.75;4.80;;;;;;;;;;5075393;28;20024;-37
2022/07/23 01:23:52;;;;;;;8.20;5.50;;;;;;;;;;5075565;28;20044;-38
2022/07/23 01:26:18;;;;;;;8.35;5.68;;;;;;;;;;5075534;28;20029;-38
2022/07/23 01:28:44;;;;;;;7.72;5.28;;;;;;;;;;5075414;28;20424;-38
2022/07/23 01:31:10;;;;;;;12.50;6.35;;;;;;;;;;5075702;28;20031;-38
2022/07/23 01:33:36;;;;;;;12.75;5.68;;;;;;;;;;5075505;28;20064;-38
2022/07/23 01:36:02;;;;;;;11.48;5.43;;;;;;;;;;5075217;28;20121;-38
2022/07/23 01:38:28;;;;;;;7.90;5.45;;;;;;;;;;5073916;28;20025;-38
2022/07/23 01:40:54;;;;;;;8.07;5.50;;;;;;;;;;5075097;28;20033;-38
2022/07/23 01:43:20;;;;;;;8.93;6.30;;;;;;;;;;5075205;28;20021;-38
2022/07/23 01:45:46;;;;;;;8.63;4.60;;;;;;;;;;5075400;28;20051;-38
2022/07/23 01:48:12;;;;;;;7.03;5.47;;;;;;;;;;5075455;28;20053;-38
2022/07/23 01:50:38;;;;;;;8.13;5.63;;;;;;;;;;5075259;28;20432;-40
2022/07/23 01:53:04;;;;;;;10.68;5.72;;;;;;;;;;5075200;28;20021;-38
2022/07/23 01:55:30;;;;;;;9.20;5.18;;;;;;;;;;5074754;28;20118;-38
2022/07/23 01:57:56;;;;;;;8.65;6.25;;;;;;;;;;5075704;28;20031;-38
2022/07/23 02:00:22;;;;;;;7.30;5.50;;;;;;;;;;5075113;28;20160;-37
2022/07/23 02:02:48;;;;;;;9.65;5.85;;;;;;;;;;5075507;28;20437;-37
2022/07/23 02:05:14;;;;;;;9.77;6.38;;;;;;;;;;5075166;28;20077;-38
2022/07/23 02:07:40;;;;;;;10.93;6.57;;;;;;;;;;5075228;28;20463;-38
2022/07/23 02:10:07;;;;;;;9.55;6.28;;;;;;;;;;5074805;28;20024;-39
2022/07/23 02:12:33;;;;;;;10.55;5.82;;;;;;;;;;5074913;28;20131;-38
2022/07/23 02:14:59;;;;;;;10.93;6.70;;;;;;;;;;5076514;28;20166;-38
2022/07/23 02:17:25;;;;;;;7.93;6.07;;;;;;;;;;5074881;28;20106;-42
2022/07/23 02:19:51;;;;;;;10.98;6.72;;;;;;;;;;5074601;28;20095;-39
2022/07/23 02:22:17;;;;;;;8.88;6.05;;;;;;;;;;5074603;28;20031;-38
2022/07/23 02:24:43;;;;;;;7.35;6.20;;;;;;;;;;5074651;28;20048;-39
2022/07/23 02:27:09;;;;;;;9.38;6.75;;;;;;;;;;5074379;28;20028;-39
2022/07/23 02:29:35;;;;;;;10.18;6.13;;;;;;;;;;5075052;28;20028;-38
2022/07/23 02:32:01;;;;;;;11.30;6.15;;;;;;;;;;5074656;28;20071;-38
2022/07/23 02:34:27;;;;;;;16.58;7.35;;;;;;;;;;5074373;28;20056;-38
2022/07/23 02:36:53;;;;;;;9.27;5.95;;;;;;;;;;5074107;28;20376;-39
2022/07/23 02:39:19;;;;;;;10.57;6.80;;;;;;;;;;5074102;28;20017;-38
2022/07/23 02:41:45;;;;;;;9.52;6.28;;;;;;;;;;5074346;28;20021;-38
2022/07/23 02:44:11;;;;;;;9.00;6.60;;;;;;;;;;5074228;28;20464;-38
2022/07/23 02:46:37;;;;;;;10.73;6.88;;;;;;;;;;5074122;28;20168;-38
2022/07/23 02:49:04;;;;;;;9.30;7.00;;;;;;;;;;5074271;28;20502;-38
2022/07/23 02:51:30;;;;;;;11.40;6.95;;;;;;;;;;5073828;28;20040;-40
2022/07/23 02:53:56;;;;;;;12.52;7.88;;;;;;;;;;5073970;28;20025;-39
2022/07/23 02:56:23;;;;;;;9.70;6.35;;;;;;;;;;5073495;28;20111;-39
2022/07/23 02:58:49;;;;;;;9.57;8.07;;;;;;;;;;5072791;28;20020;-38
2022/07/23 03:01:15;;;;;;;10.55;7.15;;;;;;;;;;5073899;28;20031;-39
2022/07/23 03:03:41;;;;;;;10.25;7.18;;;;;;;;;;5073619;28;20067;-39
2022/07/23 03:06:07;;;;;;;10.45;7.03;;;;;;;;;;5073053;28;20031;-37
2022/07/23 03:08:33;;;;;;;8.05;6.40;;;;;;;;;;5073607;28;20060;-39
2022/07/23 03:10:59;;;;;;;13.90;7.82;;;;;;;;;;5073772;28;20135;-38
2022/07/23 03:13:25;;;;;;;11.75;8.00;;;;;;;;;;5073847;28;20468;-39
2022/07/23 03:15:51;;;;;;;10.77;7.45;;;;;;;;;;5073609;28;20024;-38
2022/07/23 03:18:17;;;;;;;11.73;7.82;;;;;;;;;;5073499;28;20384;-38
2022/07/23 03:20:43;;;;;;;13.93;8.15;;;;;;;;;;5073593;28;20020;-37
2022/07/23 03:23:09;;;;;;;10.45;7.35;;;;;;;;;;5073425;28;20388;-39
2022/07/23 03:25:35;;;;;;;11.52;7.50;;;;;;;;;;5073719;28;20476;-39
2022/07/23 19:55:50;;;;;;;5.13;4.20;;;;;;;;;;5071826;28;20928;-40
2022/07/23 19:58:16;;;;;;;5.57;3.65;;;;;;;;;;5070078;28;20025;-38
2022/07/23 20:00:43;;;;;;;7.32;4.00;;;;;;;;;;5070891;28;20112;-40
2022/07/23 20:03:10;;;;;;;5.82;3.28;;;;;;;;;;5071054;28;20048;-39
2022/07/23 20:05:37;;;;;;;7.95;3.47;;;;;;;;;;5069453;28;20103;-39
2022/07/23 20:08:03;;;;;;;5.55;3.10;;;;;;;;;;5069045;28;20024;-39
2022/07/23 20:10:29;;;;;;;3.60;3.00;;;;;;;;;;5070545;28;20027;-40
2022/07/23 20:12:55;;;;;;;4.40;3.13;;;;;;;;;;5069265;28;20475;-41
2022/07/23 20:15:21;;;;;;;3.55;2.67;;;;;;;;;;5070264;28;20025;-40
2022/07/23 20:17:51;;;;;;;5.80;4.25;;;;;;;;;;5070263;28;20055;-40
2022/07/23 20:20:17;;;;;;;5.82;2.80;;;;;;;;;;5071092;28;20025;-45
2022/07/23 20:22:44;;;;;;;4.03;3.38;;;;;;;;;;5070069;28;20025;-49
2022/07/23 20:25:13;;;;;;;6.10;3.60;;;;;;;;;;5071193;28;20150;-39
2022/07/23 20:27:40;;;;;;;4.25;3.67;;;;;;;;;;5069579;28;20079;-38
2022/07/23 20:30:08;;;;;;;6.28;3.45;;;;;;;;;;5070946;28;20373;-39
2022/07/23 20:32:34;;;;;;;7.82;4.00;;;;;;;;;;5069198;28;20113;-40
2022/07/23 20:35:01;;;;;;;6.65;3.13;;;;;;;;;;5069064;28;20049;-39
2022/07/23 20:37:27;;;;;;;5.47;4.10;;;;;;;;;;5069492;28;20024;-40
2022/07/23 20:39:53;;;;;;;6.32;4.63;;;;;;;;;;5069777;28;20021;-39
2022/07/23 20:42:22;;;;;;;4.57;4.18;;;;;;;;;;5068180;28;20078;-39
2022/07/23 20:44:49;;;;;;;3.58;2.92;;;;;;;;;;5069602;28;20033;-39
2022/07/23 20:47:15;;;;;;;3.97;3.22;;;;;;;;;;5067934;28;20124;-40
2022/07/23 20:49:43;;;;;;;4.15;3.40;;;;;;;;;;5069365;28;20045;-40
2022/07/23 20:52:09;;;;;;;6.47;3.97;;;;;;;;;;5069603;28;20025;-40
2022/07/23 20:54:35;;;;;;;6.50;3.97;;;;;;;;;;5068794;28;20047;-38
2022/07/23 20:57:01;;;;;;;5.88;3.95;;;;;;;;;;5068898;28;20384;-39
2022/07/23 20:59:27;;;;;;;7.93;3.30;;;;;;;;;;5069540;28;20078;-38
2022/07/23 21:01:53;;;;;;;6.28;4.05;;;;;;;;;;5067609;28;20433;-37
2022/07/23 21:04:19;;;;;;;6.38;3.53;;;;;;;;;;5067648;28;20106;-39
2022/07/23 21:06:45;;;;;;;5.78;3.72;;;;;;;;;;5058386;28;20143;-39
2022/07/23 21:09:11;;;;;;;4.68;3.47;;;;;;;;;;5056566;28;20067;-39
2022/07/23 21:11:37;;;;;;;5.10;3.85;;;;;;;;;;5054399;28;20171;-39
2022/07/23 21:14:04;;;;;;;5.57;3.92;;;;;;;;;;5055477;28;20071;-39
2022/07/23 21:16:30;;;;;;;5.82;4.20;;;;;;;;;;5055692;28;20039;-40
2022/07/23 21:18:56;;;;;;;8.95;4.25;;;;;;;;;;5054970;28;20029;-41
2022/07/23 21:21:22;;;;;;;8.10;4.85;;;;;;;;;;5056144;28;20480;-39
2022/07/23 21:23:51;;;;;;;8.32;4.43;;;;;;;;;;5056170;28;20029;-39
2022/07/23 21:26:18;;;;;;;9.73;5.97;;;;;;;;;;5056595;28;20029;-40
2022/07/23 21:28:44;;;;;;;9.82;5.00;;;;;;;;;;5055858;28;20104;-40
2022/07/23 21:31:10;;;;;;;8.32;3.78;;;;;;;;;;5055962;28;20047;-39
2022/07/23 21:33:37;;;;;;;8.57;6.10;;;;;;;;;;5055279;28;20032;-39
2022/07/23 21:36:04;;;;;;;5.18;4.68;;;;;;;;;;5055932;28;20025;-39
2022/07/23 21:38:30;;;;;;;5.03;3.90;;;;;;;;;;5055541;28;20021;-41
2022/07/23 21:40:57;;;;;;;5.72;3.92;;;;;;;;;;5054971;28;20028;-41
2022/07/23 21:43:23;;;;;;;6.00;4.30;;;;;;;;;;5056631;28;20025;-39
2022/07/23 21:45:49;;;;;;;4.97;3.92;;;;;;;;;;5053786;28;20052;-40
2022/07/23 21:48:15;;;;;;;6.30;4.38;;;;;;;;;;5037562;28;20059;-40
2022/07/23 21:50:43;;;;;;;4.55;3.85;;;;;;;;;;5054119;28;20039;-39
2022/07/23 21:53:09;;;;;;;4.85;3.95;;;;;;;;;;5054914;28;20079;-39
2022/07/23 21:55:35;;;;;;;5.72;4.43;;;;;;;;;;5056542;28;20509;-39
2022/07/23 21:58:01;;;;;;;5.72;4.38;;;;;;;;;;5055262;28;20029;-39
2022/07/23 22:00:30;;;;;;;6.03;4.28;;;;;;;;;;5054896;28;20025;-39
2022/07/23 22:02:56;;;;;;;6.80;4.30;;;;;;;;;;5055253;28;20021;-39
2022/07/23 22:05:25;;;;;;;7.13;4.60;;;;;;;;;;5054808;28;20057;-38
2022/07/23 22:07:51;;;;;;;6.35;4.00;;;;;;;;;;5054975;28;20035;-40
2022/07/23 22:10:17;;;;;;;8.18;4.63;;;;;;;;;;5055870;28;20029;-40
2022/07/23 22:12:43;;;;;;;5.00;3.53;;;;;;;;;;5054758;28;20025;-38
2022/07/23 22:15:10;;;;;;;3.92;3.55;;;;;;;;;;5054527;28;20029;-39
2022/07/23 22:17:37;;;;;;;5.32;4.10;;;;;;;;;;5053421;28;20021;-40
2022/07/23 22:20:04;;;;;;;10.23;4.93;;;;;;;;;;5055330;28;20024;-38
2022/07/23 22:22:30;;;;;;;6.43;4.45;;;;;;;;;;5053338;28;20028;-39
2022/07/23 22:24:56;;;;;;;5.32;4.22;;;;;;;;;;5055072;28;20071;-45
2022/07/23 22:27:22;;;;;;;11.50;4.65;;;;;;;;;;5053548;28;20487;-38
2022/07/23 22:29:48;;;;;;;7.43;4.22;;;;;;;;;;5054619;28;20033;-39
2022/07/23 22:32:14;;;;;;;4.18;3.75;;;;;;;;;;5054358;28;20362;-39
2022/07/23 22:34:40;;;;;;;6.57;3.90;;;;;;;;;;5054501;28;20508;-38
2022/07/23 22:37:06;;;;;;;6.95;5.10;;;;;;;;;;5053204;28;20116;-38
2022/07/23 22:39:32;;;;;;;9.52;4.45;;;;;;;;;;5054333;28;20032;-38
2022/07/23 22:41:58;;;;;;;6.63;5.47;;;;;;;;;;5055141;28;20025;-39
2022/07/23 22:44:24;;;;;;;7.00;5.53;;;;;;;;;;5054848;28;20056;-38
2022/07/23 22:46:51;;;;;;;5.45;4.10;;;;;;;;;;5054150;28;20033;-39
2022/07/23 22:49:17;;;;;;;5.82;4.43;;;;;;;;;;5054231;28;20473;-39
2022/07/23 22:51:43;;;;;;;6.85;4.55;;;;;;;;;;5054160;28;20021;-40
2022/07/23 22:54:09;;;;;;;11.93;4.75;;;;;;;;;;5053555;28;20056;-38
2022/07/23 22:56:35;;;;;;;5.82;4.60;;;;;;;;;;5053847;28;20021;-42
2022/07/23 22:59:01;;;;;;;5.20;4.28;;;;;;;;;;5053855;28;20021;-39
2022/07/23 23:01:27;;;;;;;8.80;5.05;;;;;;;;;;5052421;28;20489;-39
2022/07/23 23:03:53;;;;;;;6.70;4.65;;;;;;;;;;5054278;28;20024;-38
2022/07/23 23:06:19;;;;;;;6.30;4.25;;;;;;;;;;5053564;28;20075;-39
2022/07/23 23:08:45;;;;;;;6.18;4.38;;;;;;;;;;5053719;28;20469;-38
2022/07/23 23:11:11;;;;;;;8.23;4.72;;;;;;;;;;5053654;28;20047;-40
2022/07/23 23:13:37;;;;;;;6.40;4.32;;;;;;;;;;5054201;28;20029;-39
2022/07/23 23:16:03;;;;;;;5.47;4.90;;;;;;;;;;5052034;28;20032;-39
2022/07/23 23:18:29;;;;;;;10.50;4.72;;;;;;;;;;5053944;28;20163;-38
2022/07/23 23:20:56;;;;;;;5.45;4.90;;;;;;;;;;5052112;28;20032;-38
2022/07/23 23:23:22;;;;;;;5.82;4.82;;;;;;;;;;5053313;28;20024;-39
2022/07/23 23:25:48;;;;;;;6.85;5.35;;;;;;;;;;5054091;28;20025;-37
2022/07/23 23:28:14;;;;;;;6.75;5.10;;;;;;;;;;5053274;28;20029;-38
2022/07/23 23:30:40;;;;;;;6.88;5.25;;;;;;;;;;5053450;28;20025;-38
2022/07/23 23:33:06;;;;;;;10.25;5.57;;;;;;;;;;5053246;28;20500;-39
2022/07/23 23:35:32;;;;;;;5.72;4.43;;;;;;;;;;5053014;28;20021;-38
2022/07/23 23:37:58;;;;;;;8.80;4.82;;;;;;;;;;5053168;28;20033;-38
2022/07/23 23:40:24;;;;;;;6.40;4.57;;;;;;;;;;5051981;28;20028;-39
2022/07/23 23:42:50;;;;;;;6.28;4.82;;;;;;;;;;5053073;28;20358;-40
2022/07/23 23:45:16;;;;;;;9.70;5.65;;;;;;;;;;5052994;28;20108;-38
2022/07/23 23:47:42;;;;;;;9.20;5.40;;;;;;;;;;5053168;28;20090;-39
2022/07/23 23:50:09;;;;;;;6.93;5.15;;;;;;;;;;5053117;28;20033;-39
2022/07/23 23:52:35;;;;;;;6.88;5.38;;;;;;;;;;5053339;28;20033;-39
2022/07/23 23:55:01;;;;;;;7.20;5.55;;;;;;;;;;5052722;28;20049;-38
2022/07/23 23:57:27;;;;;;;6.78;4.75;;;;;;;;;;5053086;28;20081;-38
2022/07/23 23:59:53;;;;;;;6.32;5.20;;;;;;;;;;5053140;28;20067;-38
